createdAt,value
2018-08-20T00:01:21.512Z,11.70
2018-08-20T00:03:51.186Z,10.03
2018-08-20T00:06:20.536Z,9.60
2018-08-20T00:08:48.928Z,10.50
2018-08-20T00:11:18.339Z,9.30
2018-08-20T00:13:46.705Z,9.33
2018-08-20T00:16:15.956Z,9.03
2018-08-20T00:18:45.466Z,8.90
2018-08-20T00:21:14.336Z,8.00
2018-08-20T00:23:44.182Z,9.60
2018-08-20T00:26:13.625Z,10.03
2018-08-20T00:28:43.896Z,7.47
2018-08-20T00:31:14.746Z,8.27
2018-08-20T00:33:44.708Z,9.13
2018-08-20T00:36:15.828Z,9.00
2018-08-20T00:38:45.240Z,9.17
2018-08-20T00:41:15.965Z,9.60
2018-08-20T00:43:46.909Z,11.73
2018-08-20T00:46:16.938Z,10.87
2018-08-20T00:48:47.785Z,11.50
2018-08-20T00:51:17.005Z,10.73
2018-08-20T00:53:47.005Z,10.63
2018-08-20T00:56:17.120Z,10.20
2018-08-20T00:58:46.444Z,10.07
2018-08-20T01:01:16.728Z,9.53
2018-08-20T01:03:46.112Z,10.33
2018-08-20T01:06:16.865Z,10.50
2018-08-20T01:08:46.871Z,9.43
2018-08-20T01:11:15.962Z,10.60
2018-08-20T01:13:45.332Z,9.80
2018-08-20T01:16:14.821Z,10.63
2018-08-20T01:18:44.100Z,10.47
2018-08-20T01:21:13.949Z,9.50
2018-08-20T01:23:43.654Z,10.47
2018-08-20T01:26:13.304Z,9.93
2018-08-20T01:28:41.648Z,8.97
2018-08-20T01:31:09.988Z,10.03
2018-08-20T01:33:38.324Z,9.30
2018-08-20T01:36:06.670Z,8.50
2018-08-20T01:38:35.078Z,8.30
2018-08-20T01:41:03.417Z,8.43
2018-08-20T01:43:31.738Z,8.73
2018-08-20T01:46:00.078Z,8.70
2018-08-20T01:48:28.512Z,8.40
2018-08-20T01:50:56.860Z,8.20
2018-08-20T01:53:25.210Z,8.50
2018-08-20T01:55:53.590Z,8.43
2018-08-20T01:58:21.924Z,9.00
2018-08-20T02:00:50.301Z,7.73
2018-08-20T02:03:18.656Z,8.73
2018-08-20T02:05:47.052Z,8.33
2018-08-20T02:08:16.994Z,8.60
2018-08-20T02:10:47.605Z,8.40
2018-08-20T02:13:15.932Z,8.53
2018-08-20T02:15:46.703Z,8.53
2018-08-20T02:18:16.141Z,8.40
2018-08-20T02:20:45.368Z,8.77
2018-08-20T02:23:14.806Z,8.70
2018-08-20T02:25:43.852Z,8.20
2018-08-20T02:28:14.005Z,9.40
2018-08-20T02:30:43.010Z,7.80
2018-08-20T02:33:11.341Z,9.20
2018-08-20T02:35:39.681Z,8.63
2018-08-20T02:38:08.143Z,8.43
2018-08-20T02:40:36.544Z,8.33
2018-08-20T02:43:05.930Z,8.80
2018-08-20T02:45:34.277Z,9.10
2018-08-20T02:48:02.641Z,8.70
2018-08-20T02:50:30.983Z,7.70
2018-08-20T02:52:59.321Z,9.53
2018-08-20T02:55:27.648Z,8.47
2018-08-20T02:57:55.986Z,8.90
2018-08-20T03:00:24.420Z,8.90
2018-08-20T03:02:52.772Z,7.93
2018-08-20T03:05:21.121Z,9.37
2018-08-20T03:07:49.509Z,9.20
2018-08-20T03:10:17.840Z,8.20
2018-08-20T03:12:46.417Z,7.90
2018-08-20T03:15:16.201Z,8.53
2018-08-20T03:17:45.388Z,9.20
2018-08-20T03:20:14.501Z,8.73
2018-08-20T03:22:43.484Z,10.33
2018-08-20T03:25:11.885Z,8.70
2018-08-20T03:27:40.228Z,8.43
2018-08-20T03:30:10.292Z,8.40
2018-08-20T03:32:39.206Z,9.80
2018-08-20T03:35:08.846Z,9.50
2018-08-20T03:37:37.389Z,9.13
2018-08-20T03:40:07.434Z,9.40
2018-08-20T03:42:35.847Z,10.23
2018-08-20T03:45:05.077Z,9.20
2018-08-20T03:47:33.481Z,9.47
2018-08-20T03:50:01.837Z,10.70
2018-08-20T03:52:30.201Z,9.20
2018-08-20T03:54:58.539Z,9.27
2018-08-20T03:57:26.906Z,9.80
2018-08-20T03:59:55.304Z,9.87
2018-08-20T04:02:23.641Z,9.97
2018-08-20T04:04:51.980Z,8.60
2018-08-20T04:07:20.326Z,8.83
2018-08-20T04:09:48.804Z,8.80
2018-08-20T04:12:17.136Z,10.30
2018-08-20T04:14:46.621Z,9.67
2018-08-20T04:17:15.681Z,9.60
2018-08-20T04:19:45.152Z,8.70
2018-08-20T04:22:14.258Z,10.10
2018-08-20T04:24:44.015Z,10.70
2018-08-20T04:27:12.351Z,10.00
2018-08-20T04:29:40.692Z,9.67
2018-08-20T04:32:09.114Z,9.50
2018-08-20T04:34:37.541Z,9.33
2018-08-20T04:37:05.880Z,9.43
2018-08-20T04:39:34.358Z,10.00
2018-08-20T04:42:02.869Z,9.47
2018-08-20T04:44:31.172Z,9.13
2018-08-20T04:46:59.485Z,9.13
2018-08-20T04:49:27.817Z,9.23
2018-08-20T04:51:56.148Z,10.20
2018-08-20T04:54:24.578Z,9.00
2018-08-20T04:56:52.925Z,10.17
2018-08-20T04:59:21.287Z,9.00
2018-08-20T05:01:49.642Z,9.10
2018-08-20T05:04:18.003Z,10.70
2018-08-20T05:06:46.580Z,9.23
2018-08-20T05:09:16.360Z,10.20
2018-08-20T05:11:46.190Z,11.17
2018-08-20T05:14:15.647Z,9.60
2018-08-20T05:16:45.662Z,10.00
2018-08-20T05:19:14.964Z,10.70
2018-08-20T05:21:43.976Z,9.87
2018-08-20T05:24:14.041Z,9.47
2018-08-20T05:26:45.018Z,9.63
2018-08-20T05:29:13.898Z,10.00
2018-08-20T05:31:44.370Z,9.70
2018-08-20T05:34:14.785Z,10.43
2018-08-20T05:36:45.404Z,10.73
2018-08-20T05:39:14.777Z,9.70
2018-08-20T05:41:44.780Z,10.17
2018-08-20T05:44:13.507Z,11.07
2018-08-20T05:46:44.966Z,9.60
2018-08-20T05:49:14.189Z,9.67
2018-08-20T05:51:42.532Z,9.17
2018-08-20T05:54:11.110Z,9.90
2018-08-20T05:56:39.942Z,9.80
2018-08-20T05:59:08.339Z,9.07
2018-08-20T06:01:36.690Z,8.60
2018-08-20T06:04:05.150Z,8.80
2018-08-20T06:06:33.537Z,8.57
2018-08-20T06:09:01.917Z,9.83
2018-08-20T06:11:30.307Z,10.13
2018-08-20T06:13:58.656Z,10.00
2018-08-20T06:16:26.998Z,8.97
2018-08-20T06:18:55.329Z,9.83
2018-08-20T06:21:23.757Z,8.87
2018-08-20T06:23:52.210Z,9.10
2018-08-20T06:26:20.564Z,9.83
2018-08-20T06:28:48.909Z,8.77
2018-08-20T06:31:17.272Z,9.43
2018-08-20T06:33:48.040Z,9.17
2018-08-20T06:36:17.410Z,9.70
2018-08-20T06:38:46.666Z,10.10
2018-08-20T06:41:16.134Z,7.70
2018-08-20T06:43:46.611Z,9.93
2018-08-20T06:46:15.938Z,9.90
2018-08-20T06:48:45.473Z,10.00
2018-08-20T06:51:15.303Z,9.17
2018-08-20T06:53:45.722Z,10.10
2018-08-20T06:56:15.821Z,9.60
2018-08-20T06:58:46.117Z,9.00
2018-08-20T07:01:16.877Z,8.83
2018-08-20T07:03:47.156Z,9.27
2018-08-20T07:06:16.467Z,10.80
2018-08-20T07:08:46.682Z,8.70
2018-08-20T07:11:16.250Z,9.53
2018-08-20T07:13:46.670Z,8.80
2018-08-20T07:16:16.133Z,9.33
2018-08-20T07:18:46.252Z,8.47
2018-08-20T07:21:16.939Z,7.83
2018-08-20T07:23:47.476Z,9.00
2018-08-20T07:26:16.734Z,8.07
2018-08-20T07:28:47.365Z,8.03
2018-08-20T07:31:16.748Z,8.90
2018-08-20T07:33:47.356Z,7.90
2018-08-20T07:36:16.625Z,9.80
2018-08-20T07:38:47.429Z,8.10
2018-08-20T07:41:16.593Z,8.73
2018-08-20T07:43:46.521Z,8.27
2018-08-20T07:46:17.255Z,8.70
2018-08-20T07:48:46.465Z,9.37
2018-08-20T07:51:16.744Z,8.00
2018-08-20T07:53:46.573Z,8.40
2018-08-20T07:56:15.976Z,8.70
2018-08-20T07:58:46.301Z,8.90
2018-08-20T08:01:16.511Z,8.77
2018-08-20T08:03:45.881Z,7.70
2018-08-20T08:06:16.805Z,9.47
2018-08-20T08:08:46.563Z,8.77
2018-08-20T08:11:17.433Z,8.60
2018-08-20T08:13:45.977Z,9.40
2018-08-20T08:16:16.730Z,7.33
2018-08-20T08:18:45.800Z,8.10
2018-08-20T08:21:16.602Z,9.20
2018-08-20T08:23:46.013Z,8.33
2018-08-20T08:26:16.460Z,7.97
2018-08-20T08:28:46.006Z,7.83
2018-08-20T08:31:15.541Z,9.10
2018-08-20T08:33:45.969Z,7.47
2018-08-20T08:36:17.166Z,7.73
2018-08-20T08:38:46.458Z,7.43
2018-08-20T08:41:16.657Z,7.30
2018-08-20T08:43:46.129Z,6.67
2018-08-20T08:46:17.092Z,7.00
2018-08-20T08:48:46.426Z,6.50
2018-08-20T08:51:15.780Z,6.83
2018-08-20T08:53:45.065Z,7.00
2018-08-20T08:56:14.577Z,6.63
2018-08-20T08:58:43.438Z,6.87
2018-08-20T09:01:11.786Z,7.20
2018-08-20T09:03:40.113Z,7.13
2018-08-20T09:06:08.465Z,6.43
2018-08-20T09:08:36.792Z,6.37
2018-08-20T09:11:05.136Z,6.20
2018-08-20T09:13:33.615Z,6.10
2018-08-20T09:16:02.055Z,6.37
2018-08-20T09:18:30.388Z,5.80
2018-08-20T09:20:58.753Z,5.53
2018-08-20T09:23:28.001Z,5.47
2018-08-20T09:25:56.423Z,3.73
2018-08-20T09:28:24.760Z,4.40
2018-08-20T09:30:54.090Z,4.10
2018-08-20T09:33:23.565Z,4.10
2018-08-20T09:35:52.784Z,4.37
2018-08-20T09:38:22.037Z,4.70
2018-08-20T09:40:50.416Z,5.23
2018-08-20T09:43:18.825Z,5.73
2018-08-20T09:45:48.062Z,5.17
2018-08-20T09:48:17.298Z,5.47
2018-08-20T09:50:46.729Z,5.40
2018-08-20T09:53:17.433Z,5.47
2018-08-20T09:55:46.701Z,6.00
2018-08-20T09:58:16.796Z,5.53
2018-08-20T10:00:47.441Z,5.40
2018-08-20T10:03:16.785Z,5.00
2018-08-20T10:05:46.197Z,5.50
2018-08-20T10:08:16.156Z,4.93
2018-08-20T10:10:46.978Z,5.67
2018-08-20T10:13:18.117Z,5.53
2018-08-20T10:15:46.472Z,4.73
2018-08-20T10:18:16.799Z,3.90
2018-08-20T10:20:46.005Z,4.00
2018-08-20T10:23:15.530Z,3.43
2018-08-20T10:25:44.540Z,3.80
2018-08-20T10:28:13.474Z,3.30
2018-08-20T10:30:41.845Z,2.70
2018-08-20T10:33:10.262Z,2.00
2018-08-20T10:35:38.597Z,2.70
2018-08-20T10:38:07.012Z,2.60
2018-08-20T10:40:35.441Z,3.20
2018-08-20T10:43:03.877Z,2.00
2018-08-20T10:45:37.505Z,2.97
2018-08-20T10:48:06.209Z,2.70
2018-08-20T10:50:34.537Z,2.47
2018-08-20T10:53:02.929Z,2.60
2018-08-20T10:55:31.269Z,2.77
2018-08-20T10:57:59.616Z,2.80
2018-08-20T11:00:27.965Z,2.63
2018-08-20T11:02:56.302Z,3.40
2018-08-20T11:05:24.749Z,2.67
2018-08-20T11:07:53.072Z,3.17
2018-08-20T11:10:21.420Z,2.90
2018-08-20T11:12:49.877Z,3.23
2018-08-20T11:15:18.205Z,3.07
2018-08-20T11:17:46.560Z,2.70
2018-08-20T11:20:17.168Z,2.40
2018-08-20T11:22:46.317Z,2.27
2018-08-20T11:25:16.586Z,2.50
2018-08-20T11:27:46.145Z,2.63
2018-08-20T11:30:15.768Z,2.60
2018-08-20T11:32:46.731Z,3.00
2018-08-20T11:35:16.327Z,3.00
2018-08-20T11:37:45.751Z,3.57
2018-08-20T11:40:15.041Z,3.20
2018-08-20T11:42:45.169Z,2.50
2018-08-20T11:45:15.017Z,3.03
2018-08-20T11:47:44.529Z,2.43
2018-08-20T11:50:13.586Z,3.10
2018-08-20T11:52:41.953Z,3.00
2018-08-20T11:55:10.421Z,2.60
2018-08-20T11:57:38.744Z,1.80
2018-08-20T12:00:08.793Z,2.37
2018-08-20T12:02:37.250Z,2.37
2018-08-20T12:05:05.982Z,2.67
2018-08-20T12:07:34.362Z,2.47
2018-08-20T12:10:03.730Z,2.60
2018-08-20T12:12:32.167Z,2.57
2018-08-20T12:15:00.510Z,2.27
2018-08-20T12:17:28.858Z,2.40
2018-08-20T12:19:57.197Z,1.83
2018-08-20T12:22:25.556Z,2.10
2018-08-20T12:24:53.881Z,2.50
2018-08-20T12:27:22.329Z,1.93
2018-08-20T12:29:50.725Z,2.53
2018-08-20T12:32:19.040Z,2.10
2018-08-20T12:34:47.381Z,2.33
2018-08-20T12:37:16.733Z,2.40
2018-08-20T12:39:47.225Z,2.10
2018-08-20T12:42:16.493Z,2.10
2018-08-20T12:44:45.786Z,1.87
2018-08-20T12:47:15.453Z,1.83
2018-08-20T12:49:44.517Z,2.50
2018-08-20T12:52:13.893Z,2.20
2018-08-20T12:54:42.341Z,2.20
2018-08-20T12:57:10.724Z,2.20
2018-08-20T12:59:39.203Z,2.60
2018-08-20T13:02:07.813Z,2.23
2018-08-20T13:04:36.168Z,2.60
2018-08-20T13:07:04.564Z,2.10
2018-08-20T13:09:32.967Z,2.20
2018-08-20T13:12:01.299Z,1.80
2018-08-20T13:14:29.670Z,2.10
2018-08-20T13:16:58.029Z,2.07
2018-08-20T13:19:26.399Z,1.93
2018-08-20T13:21:54.725Z,1.80
2018-08-20T13:24:23.115Z,1.67
2018-08-20T13:26:51.512Z,2.00
2018-08-20T13:29:20.978Z,2.20
2018-08-20T13:31:49.369Z,2.03
2018-08-20T13:34:17.765Z,2.20
2018-08-20T13:36:46.909Z,2.10
2018-08-20T13:39:16.817Z,2.20
2018-08-20T13:41:46.449Z,1.80
2018-08-20T13:44:18.082Z,1.80
2018-08-20T13:46:46.477Z,2.20
2018-08-20T13:49:16.888Z,2.30
2018-08-20T13:51:48.281Z,2.10
2018-08-20T13:54:17.601Z,2.20
2018-08-20T13:56:46.891Z,3.00
2018-08-20T13:59:17.473Z,1.90
2018-08-20T14:01:46.853Z,2.10
2018-08-20T14:04:16.790Z,1.83
2018-08-20T14:06:47.613Z,2.37
2018-08-20T14:09:16.998Z,2.67
2018-08-20T14:11:48.017Z,2.60
2018-08-20T14:14:17.265Z,1.93
2018-08-20T14:16:46.457Z,1.90
2018-08-20T14:19:16.686Z,3.00
2018-08-20T14:21:45.850Z,3.17
2018-08-20T14:24:16.340Z,2.60
2018-08-20T14:26:46.359Z,2.10
2018-08-20T14:29:15.998Z,1.87
2018-08-20T14:31:47.586Z,1.90
2018-08-20T14:34:18.057Z,2.13
2018-08-20T14:36:46.404Z,1.90
2018-08-20T14:39:15.878Z,1.93
2018-08-20T14:41:44.905Z,2.10
2018-08-20T14:44:15.848Z,2.03
2018-08-20T14:46:46.747Z,1.90
2018-08-20T14:49:15.939Z,2.33
2018-08-20T14:51:45.443Z,2.40
2018-08-20T14:54:14.961Z,2.60
2018-08-20T14:56:45.924Z,2.07
2018-08-20T14:59:16.797Z,1.90
2018-08-20T15:01:46.261Z,2.17
2018-08-20T15:04:16.795Z,2.37
2018-08-20T15:06:57.872Z,2.17
2018-08-20T15:09:28.443Z,1.73
2018-08-20T15:11:57.872Z,2.50
2018-08-20T15:14:26.200Z,1.93
2018-08-20T15:16:55.217Z,2.43
2018-08-20T15:19:23.661Z,2.57
2018-08-20T15:21:52.901Z,2.53
2018-08-20T15:24:22.211Z,2.20
2018-08-20T15:26:51.672Z,2.07
2018-08-20T15:29:21.226Z,2.43
2018-08-20T15:31:50.617Z,2.43
2018-08-20T15:34:19.860Z,2.57
2018-08-20T15:36:48.216Z,2.10
2018-08-20T15:39:16.650Z,2.50
2018-08-20T15:41:46.385Z,2.90
2018-08-20T15:44:16.778Z,2.07
2018-08-20T15:46:46.058Z,2.23
2018-08-20T15:49:16.494Z,2.80
2018-08-20T15:51:46.148Z,2.50
2018-08-20T15:54:17.150Z,2.20
2018-08-20T15:56:45.548Z,2.90
2018-08-20T15:59:15.550Z,2.70
2018-08-20T16:01:45.726Z,3.07
2018-08-20T16:04:15.655Z,2.40
2018-08-20T16:06:46.618Z,2.60
2018-08-20T16:09:17.260Z,2.90
2018-08-20T16:11:47.781Z,2.33
2018-08-20T16:14:16.905Z,3.00
2018-08-20T16:16:47.507Z,2.30
2018-08-20T16:19:16.754Z,2.50
2018-08-20T16:21:46.610Z,2.70
2018-08-20T16:24:16.728Z,2.63
2018-08-20T16:26:47.640Z,3.23
2018-08-20T16:29:16.849Z,2.80
2018-08-20T16:31:46.921Z,2.90
2018-08-20T16:34:16.738Z,2.87
2018-08-20T16:36:47.632Z,3.20
2018-08-20T16:39:17.066Z,3.13
2018-08-20T16:41:47.961Z,2.50
2018-08-20T16:44:18.556Z,2.97
2018-08-20T16:46:47.769Z,2.87
2018-08-20T16:49:17.029Z,2.77
2018-08-20T16:51:46.598Z,3.20
2018-08-20T16:54:16.826Z,2.77
2018-08-20T16:56:47.858Z,2.73
2018-08-20T16:59:17.193Z,3.20
2018-08-20T17:01:45.617Z,3.60
2018-08-20T17:04:29.733Z,2.83
2018-08-20T17:07:00.580Z,2.70
2018-08-20T17:09:30.237Z,2.90
2018-08-20T17:11:58.769Z,3.07
2018-08-20T17:14:27.099Z,3.10
2018-08-20T17:16:56.577Z,2.43
2018-08-20T17:19:25.768Z,3.17
2018-08-20T17:21:54.121Z,2.20
2018-08-20T17:24:28.841Z,2.80
2018-08-20T17:26:59.753Z,2.63
2018-08-20T17:29:28.978Z,2.67
2018-08-20T17:31:57.591Z,2.87
2018-08-20T17:34:26.109Z,2.70
2018-08-20T17:36:54.723Z,2.60
2018-08-20T17:39:23.101Z,2.60
2018-08-20T17:41:52.777Z,2.73
2018-08-20T17:44:22.918Z,2.80
2018-08-20T17:46:52.248Z,2.43
2018-08-20T17:49:26.918Z,2.60
2018-08-20T17:51:55.249Z,2.90
2018-08-20T17:54:24.697Z,2.83
2018-08-20T17:56:54.100Z,3.00
2018-08-20T17:59:24.018Z,2.77
2018-08-20T18:01:52.493Z,2.70
2018-08-20T18:04:21.679Z,2.97
2018-08-20T18:06:53.198Z,3.07
2018-08-20T18:09:22.549Z,2.90
2018-08-20T18:11:52.973Z,3.30
2018-08-20T18:14:23.455Z,3.17
2018-08-20T18:16:51.794Z,2.90
2018-08-20T18:19:21.009Z,2.93
2018-08-20T18:21:49.588Z,3.20
2018-08-20T18:24:19.525Z,2.80
2018-08-20T18:26:51.958Z,3.20
2018-08-20T18:29:21.178Z,2.63
2018-08-20T18:31:59.900Z,3.00
2018-08-20T18:34:28.234Z,3.10
2018-08-20T18:36:56.565Z,2.80
2018-08-20T18:39:24.892Z,2.73
2018-08-20T18:42:05.154Z,2.50
2018-08-20T18:44:34.378Z,3.37
2018-08-20T18:47:02.731Z,3.07
2018-08-20T18:49:31.139Z,3.10
2018-08-20T18:52:07.371Z,2.60
2018-08-20T18:54:40.166Z,3.07
2018-08-20T18:57:09.804Z,3.00
2018-08-20T18:59:40.358Z,3.87
2018-08-20T19:02:13.660Z,2.90
2018-08-20T19:04:48.642Z,2.77
2018-08-20T19:07:17.990Z,3.90
2018-08-20T19:09:50.148Z,3.37
2018-08-20T19:12:19.486Z,3.30
2018-08-20T19:14:48.760Z,3.17
2018-08-20T19:17:23.508Z,2.93
2018-08-20T19:19:53.011Z,3.40
2018-08-20T19:22:28.449Z,3.33
2018-08-20T19:24:56.822Z,3.00
2018-08-20T19:27:30.730Z,3.10
2018-08-20T19:30:07.203Z,3.40
2018-08-20T19:32:35.741Z,3.50
2018-08-20T19:35:04.137Z,3.90
2018-08-20T19:37:32.460Z,3.33
2018-08-20T19:40:00.848Z,3.17
2018-08-20T19:42:33.464Z,3.50
2018-08-20T19:45:02.849Z,2.87
2018-08-20T19:47:32.200Z,3.20
2018-08-20T19:50:00.572Z,3.33
2018-08-20T19:52:28.997Z,3.83
2018-08-20T19:55:02.669Z,3.37
2018-08-20T19:57:33.040Z,3.47
2018-08-20T20:00:01.370Z,3.80
2018-08-20T20:02:29.725Z,3.80
2018-08-20T20:05:03.443Z,4.00
2018-08-20T20:07:31.966Z,4.53
2018-08-20T20:10:00.310Z,4.30
2018-08-20T20:12:28.772Z,3.33
2018-08-20T20:14:58.189Z,3.20
2018-08-20T20:17:26.597Z,4.17
2018-08-20T20:19:55.009Z,3.50
2018-08-20T20:22:23.331Z,3.90
2018-08-20T20:24:52.632Z,4.07
2018-08-20T20:27:20.976Z,3.77
2018-08-20T20:29:49.307Z,3.23
2018-08-20T20:32:17.689Z,4.07
2018-08-20T20:34:47.229Z,4.20
2018-08-20T20:37:16.593Z,4.40
2018-08-20T20:39:54.729Z,3.50
2018-08-20T20:42:24.077Z,4.27
2018-08-20T20:44:52.446Z,3.73
2018-08-20T20:47:20.783Z,3.83
2018-08-20T20:49:49.119Z,4.60
2018-08-20T20:52:18.361Z,4.20
2018-08-20T20:54:46.685Z,4.30
2018-08-20T20:57:16.058Z,3.53
2018-08-20T20:59:46.771Z,4.33
2018-08-20T21:02:17.053Z,4.23
2018-08-20T21:04:46.132Z,3.90
2018-08-20T21:07:20.666Z,4.40
2018-08-20T21:09:49.925Z,4.40
2018-08-20T21:12:19.424Z,5.10
2018-08-20T21:14:47.776Z,4.60
2018-08-20T21:17:17.182Z,4.63
2018-08-20T21:19:47.731Z,4.50
2018-08-20T21:22:17.043Z,5.20
2018-08-20T21:24:47.721Z,4.40
2018-08-20T21:27:33.021Z,4.00
2018-08-20T21:30:02.656Z,4.17
2018-08-20T21:32:31.869Z,4.60
2018-08-20T21:35:00.410Z,4.20
2018-08-20T21:37:29.789Z,5.13
2018-08-20T21:39:58.176Z,4.00
2018-08-20T21:42:45.629Z,4.70
2018-08-20T21:45:15.793Z,4.27
2018-08-20T21:47:44.769Z,4.60
2018-08-20T21:50:14.529Z,5.13
2018-08-20T21:52:43.606Z,4.37
2018-08-20T21:55:11.950Z,4.37
2018-08-20T21:57:45.417Z,4.20
2018-08-20T22:00:17.494Z,4.43
2018-08-20T22:02:52.920Z,5.60
2018-08-20T22:05:21.408Z,5.50
2018-08-20T22:07:49.941Z,5.00
2018-08-20T22:10:18.274Z,5.40
2018-08-20T22:12:47.912Z,4.50
2018-08-20T22:15:17.372Z,4.47
2018-08-20T22:17:45.796Z,4.20
2018-08-20T22:20:16.136Z,4.53
2018-08-20T22:22:46.605Z,5.20
2018-08-20T22:25:17.013Z,4.80
2018-08-20T22:27:52.529Z,4.70
2018-08-20T22:30:20.979Z,5.20
2018-08-20T22:32:50.201Z,4.60
2018-08-20T22:35:25.280Z,4.07
2018-08-20T22:37:54.665Z,4.43
2018-08-20T22:40:23.283Z,4.53
2018-08-20T22:42:54.855Z,4.07
2018-08-20T22:45:24.205Z,4.40
2018-08-20T22:47:53.551Z,3.80
2018-08-20T22:50:22.945Z,3.90
2018-08-20T22:52:52.608Z,3.77
2018-08-20T22:55:22.705Z,3.90
2018-08-20T22:58:06.081Z,4.57
2018-08-20T23:00:34.409Z,3.70
2018-08-20T23:03:03.644Z,3.63
2018-08-20T23:05:32.979Z,3.80
2018-08-20T23:08:10.060Z,3.73
2018-08-20T23:10:41.889Z,4.00
2018-08-20T23:13:11.141Z,3.30
2018-08-20T23:15:39.563Z,3.70
2018-08-20T23:18:08.921Z,3.77
2018-08-20T23:20:37.248Z,3.53
2018-08-20T23:23:06.628Z,3.10
2018-08-20T23:25:35.882Z,2.83
2018-08-20T23:28:05.329Z,2.80
2018-08-20T23:30:34.524Z,2.20
2018-08-20T23:33:04.096Z,2.30
2018-08-20T23:35:33.298Z,2.10
2018-08-20T23:38:02.506Z,1.90
2018-08-20T23:40:31.741Z,1.80
2018-08-20T23:43:01.146Z,2.17
2018-08-20T23:45:30.352Z,1.50
2018-08-20T23:47:59.837Z,1.57
2018-08-20T23:50:29.900Z,2.17
2018-08-20T23:52:59.304Z,1.73
2018-08-20T23:55:28.998Z,1.50
2018-08-20T23:57:58.469Z,2.13
